Time;durP1;ratioP1;P1;durP2;ratioP2;P2;SDS_P1;SDS_P2;PMS_P1;PMS_P2;Temp;Humidity;BMP_temperature;BMP_pressure;BME280_temperature;BME280_humidity;BME280_pressure;Samples;Min_cycle;Max_cycle;Signal;HPM_P1;HPM_P2
2021/03/13 00:10:10;;;;;;;15.65;10.53;;;;;;;-1.92;89.11;99650.00;1690009;84;21085;-64
2021/03/13 00:12:40;;;;;;;15.93;10.53;;;;;;;-1.91;88.94;99655.52;1681763;84;20962;-64
2021/03/13 00:15:13;;;;;;;18.70;10.95;;;;;;;-1.88;89.08;99661.44;1684356;84;20972;-64
2021/03/13 00:17:46;;;;;;;15.88;10.72;;;;;;;-1.85;88.97;99662.67;1684816;84;20987;-63
2021/03/13 00:20:19;;;;;;;13.93;10.32;;;;;;;-1.82;88.88;99655.42;1684355;84;21709;-63
2021/03/13 00:22:48;;;;;;;13.83;9.70;;;;;;;-1.79;88.84;99653.67;1684428;84;20979;-63
2021/03/13 00:25:17;;;;;;;15.68;10.20;;;;;;;-1.77;88.66;99643.02;1708771;82;21649;-64
2021/03/13 00:27:46;;;;;;;15.93;10.40;;;;;;;-1.76;88.59;99649.81;1733133;81;20965;-63
2021/03/13 00:30:24;;;;;;;13.08;9.83;;;;;;;-1.74;88.81;99639.16;1734637;81;20966;-63
2021/03/13 00:32:54;;;;;;;15.18;10.18;;;;;;;-1.69;88.72;99635.27;1729898;81;21550;-64
2021/03/13 00:35:26;;;;;;;13.72;9.08;;;;;;;-1.68;88.48;99638.23;1711911;82;21646;-63
2021/03/13 00:37:54;;;;;;;14.78;10.72;;;;;;;-1.69;88.42;99631.44;1730451;81;20989;-63
2021/03/13 00:40:24;;;;;;;14.50;10.65;;;;;;;-1.70;88.44;99631.88;1739410;81;21618;-63
2021/03/13 00:42:52;;;;;;;14.83;10.30;;;;;;;-1.68;88.40;99622.91;1739432;81;21466;-63
2021/03/13 00:45:24;;;;;;;12.40;9.60;;;;;;;-1.68;88.26;99631.84;1741296;81;21948;-63
2021/03/13 00:47:52;;;;;;;19.80;11.30;;;;;;;-1.69;88.32;99632.28;1734195;81;21546;-63
2021/03/13 00:50:23;;;;;;;14.90;10.35;;;;;;;-1.70;88.47;99631.88;1759705;81;21557;-64
2021/03/13 00:52:51;;;;;;;14.83;10.43;;;;;;;-1.70;88.55;99628.04;1702538;83;21076;-63
2021/03/13 00:55:20;;;;;;;16.60;10.98;;;;;;;-1.68;88.64;99625.47;1748216;81;21534;-64
2021/03/13 00:57:50;;;;;;;18.85;11.30;;;;;;;-1.70;88.54;99629.75;1739918;81;22352;-69
2021/03/13 01:00:23;;;;;;;16.12;10.50;;;;;;;-1.72;88.62;99622.55;1692259;82;21622;-68
2021/03/13 01:02:52;;;;;;;17.92;9.93;;;;;;;-1.71;88.71;99636.56;1691384;82;21392;-69
2021/03/13 01:05:20;;;;;;;17.73;10.93;;;;;;;-1.72;88.72;99635.30;1729931;81;21589;-68
2021/03/13 01:07:50;;;;;;;13.85;10.58;;;;;;;-1.74;88.86;99628.09;1744248;81;20882;-69
2021/03/13 01:10:26;;;;;;;19.90;11.10;;;;;;;-1.75;89.04;99641.30;1730021;81;22166;-69
2021/03/13 01:12:54;;;;;;;24.18;11.83;;;;;;;-1.74;89.09;99644.25;1677139;84;21597;-65
2021/03/13 01:15:23;;;;;;;16.20;10.53;;;;;;;-1.73;89.15;99649.77;1692667;84;21669;-63
2021/03/13 01:17:52;;;;;;;19.23;11.55;;;;;;;-1.72;89.22;99649.34;1685425;84;21551;-63
2021/03/13 01:20:22;;;;;;;19.32;11.63;;;;;;;-1.71;89.40;99653.16;1732565;81;21000;-64
2021/03/13 01:22:50;;;;;;;18.23;10.53;;;;;;;-1.70;89.31;99656.55;1736749;81;21276;-63
2021/03/13 01:25:19;;;;;;;23.60;11.20;;;;;;;-1.70;89.44;99654.84;1751480;81;21629;-63
2021/03/13 01:27:48;;;;;;;19.67;11.50;;;;;;;-1.70;89.57;99651.45;1748739;81;21457;-64
2021/03/13 01:30:22;;;;;;;20.12;12.75;;;;;;;-1.70;89.62;99650.17;1755793;81;21593;-64
2021/03/13 01:32:50;;;;;;;27.65;13.48;;;;;;;-1.69;89.85;99663.34;1735794;81;21483;-64
2021/03/13 01:35:19;;;;;;;21.30;13.45;;;;;;;-1.69;89.83;99666.74;1731060;81;21194;-64
2021/03/13 01:37:48;;;;;;;25.80;14.35;;;;;;;-1.66;89.88;99671.39;1729197;81;21080;-63
2021/03/13 01:40:18;;;;;;;20.90;12.68;;;;;;;-1.67;89.83;99676.09;1750358;81;20937;-63
2021/03/13 01:42:48;;;;;;;18.52;10.80;;;;;;;-1.64;89.96;99681.16;1712984;81;21596;-63
2021/03/13 01:45:21;;;;;;;23.12;13.03;;;;;;;-1.63;89.96;99680.30;1714377;82;20941;-63
2021/03/13 01:47:52;;;;;;;20.43;11.08;;;;;;;-1.63;89.96;99681.14;1730100;81;22375;-64
2021/03/13 01:50:21;;;;;;;25.40;12.80;;;;;;;-1.63;90.10;99680.30;1664244;81;20942;-63
2021/03/13 01:52:50;;;;;;;25.72;12.93;;;;;;;-1.63;90.23;99670.92;1737889;81;21736;-63
2021/03/13 01:55:19;;;;;;;24.00;12.28;;;;;;;-1.60;90.30;99681.07;1737253;81;20997;-64
2021/03/13 01:57:49;;;;;;;21.05;11.95;;;;;;;-1.58;90.44;99666.58;1730973;81;21485;-64
2021/03/13 02:00:21;;;;;;;26.00;12.47;;;;;;;-1.56;90.46;99662.73;1731282;81;21212;-63
2021/03/13 02:02:52;;;;;;;29.95;13.88;;;;;;;-1.54;90.52;99664.84;1710054;82;21049;-63
2021/03/13 02:05:28;;;;;;;24.92;13.50;;;;;;;-1.52;90.49;99665.23;1742249;81;21032;-66
2021/03/13 02:08:41;;;;;;;24.63;13.88;;;;;;;-1.51;90.55;99660.97;1739384;81;21144;-63
2021/03/13 02:11:43;;;;;;;24.90;13.62;;;;;;;-1.52;90.55;99663.95;1737122;81;21593;-63
2021/03/13 02:14:18;;;;;;;27.37;11.70;;;;;;;-1.52;90.56;99663.95;1730096;81;21376;-64
2021/03/13 02:17:18;;;;;;;26.15;14.07;;;;;;;-1.49;90.71;99656.69;1751119;81;21683;-63
2021/03/13 02:20:18;;;;;;;21.95;12.55;;;;;;;-1.50;90.62;99656.27;1748618;81;21454;-62
2021/03/13 02:22:49;;;;;;;26.35;12.80;;;;;;;-1.48;90.75;99655.82;1757164;81;21498;-63
2021/03/13 02:26:15;;;;;;;27.87;13.38;;;;;;;-1.48;90.86;99663.48;1739694;81;21585;-64
2021/03/13 02:28:49;;;;;;;20.43;12.23;;;;;;;-1.45;90.89;99663.44;1749401;81;21461;-69
2021/03/13 02:31:18;;;;;;;27.77;12.88;;;;;;;-1.44;90.90;99675.34;1734097;81;21739;-69
2021/03/13 02:33:47;;;;;;;21.55;12.73;;;;;;;-1.44;90.87;99680.02;1758429;81;21612;-69
2021/03/13 02:36:29;;;;;;;27.98;13.53;;;;;;;-1.43;90.89;99677.88;1727103;81;21604;-69
2021/03/13 02:39:03;;;;;;;25.43;12.65;;;;;;;-1.43;90.78;99682.98;1727249;81;21645;-70
2021/03/13 02:41:37;;;;;;;23.00;13.03;;;;;;;-1.42;90.77;99680.84;1729999;81;21426;-70
2021/03/13 02:44:07;;;;;;;24.27;12.55;;;;;;;-1.45;90.71;99670.67;1728398;81;20985;-68
2021/03/13 02:46:43;;;;;;;23.77;12.30;;;;;;;-1.44;90.77;99671.52;1745771;81;21616;-69
2021/03/13 02:49:13;;;;;;;21.25;11.33;;;;;;;-1.44;90.84;99667.69;1750414;81;21084;-69
2021/03/13 02:51:42;;;;;;;29.18;13.15;;;;;;;-1.45;90.97;99668.12;1743005;81;21618;-67
2021/03/13 02:54:12;;;;;;;27.73;13.40;;;;;;;-1.43;90.98;99669.38;1728049;81;21146;-69
2021/03/13 02:56:42;;;;;;;23.12;12.43;;;;;;;-1.42;90.92;99680.84;1751758;81;21839;-69
2021/03/13 02:59:12;;;;;;;19.92;12.55;;;;;;;-1.42;90.90;99682.13;1695444;81;21522;-63
2021/03/13 03:01:42;;;;;;;25.85;12.60;;;;;;;-1.41;91.01;99683.81;1748108;81;21119;-63
2021/03/13 03:04:11;;;;;;;24.87;13.32;;;;;;;-1.38;91.13;99691.44;1753762;81;21052;-62
2021/03/13 03:06:43;;;;;;;22.17;12.85;;;;;;;-1.36;91.07;99692.69;1694103;81;21961;-63
2021/03/13 03:09:11;;;;;;;24.18;12.43;;;;;;;-1.36;90.98;99696.52;1732174;81;21180;-63
2021/03/13 03:11:42;;;;;;;23.30;12.03;;;;;;;-1.34;91.02;99703.73;1739765;81;21574;-63
2021/03/13 03:14:12;;;;;;;22.55;12.15;;;;;;;-1.31;91.08;99705.41;1732401;81;20999;-63
2021/03/13 03:16:41;;;;;;;22.35;12.18;;;;;;;-1.31;91.16;99707.95;1731799;81;21056;-65
2021/03/13 03:19:10;;;;;;;25.10;13.43;;;;;;;-1.29;91.15;99706.23;1751334;81;21213;-65
2021/03/13 03:21:40;;;;;;;22.60;12.75;;;;;;;-1.28;91.24;99715.58;1743965;81;21744;-63
2021/03/13 03:24:10;;;;;;;20.97;13.40;;;;;;;-1.28;91.18;99704.09;1725993;81;21590;-63
2021/03/13 03:26:39;;;;;;;23.05;11.85;;;;;;;-1.28;91.16;99701.53;1706002;81;21082;-64
2021/03/13 03:29:09;;;;;;;23.52;13.22;;;;;;;-1.27;91.15;99695.56;1732191;81;21068;-68
2021/03/13 03:31:37;;;;;;;29.65;13.60;;;;;;;-1.28;91.17;99696.42;1726807;81;22274;-65
2021/03/13 03:34:07;;;;;;;27.45;13.18;;;;;;;-1.29;91.14;99704.95;1730192;81;21005;-64
2021/03/13 03:36:36;;;;;;;26.52;13.62;;;;;;;-1.30;91.38;99705.81;1721268;81;21629;-63
2021/03/13 03:39:04;;;;;;;25.20;12.93;;;;;;;-1.29;91.49;99704.95;1735656;81;21701;-64
2021/03/13 03:41:35;;;;;;;22.42;12.20;;;;;;;-1.29;91.50;99707.08;1749749;81;21199;-64
2021/03/13 03:44:12;;;;;;;29.42;14.07;;;;;;;-1.28;91.61;99712.59;1727005;81;22360;-65
2021/03/13 03:46:42;;;;;;;24.02;12.73;;;;;;;-1.27;91.77;99714.72;1761114;81;21059;-63
2021/03/13 03:49:12;;;;;;;22.42;13.68;;;;;;;-1.24;91.90;99710.41;1743325;81;21610;-65
2021/03/13 03:51:44;;;;;;;23.95;13.08;;;;;;;-1.20;91.78;99712.50;1732776;81;21096;-64
2021/03/13 03:54:14;;;;;;;25.08;14.68;;;;;;;-1.18;91.65;99732.45;1740016;81;21102;-64
2021/03/13 03:56:43;;;;;;;22.30;12.33;;;;;;;-1.19;91.64;99736.72;1742192;81;22175;-68
2021/03/13 03:59:14;;;;;;;24.90;13.03;;;;;;;-1.17;91.67;99740.52;1690302;83;21030;-68
2021/03/13 04:01:49;;;;;;;30.60;13.98;;;;;;;-1.15;91.71;99744.75;1688678;83;21625;-68
2021/03/13 04:04:20;;;;;;;28.65;14.20;;;;;;;-1.15;91.62;99754.97;1684510;84;20983;-68
2021/03/13 04:06:49;;;;;;;26.55;14.18;;;;;;;-1.13;91.67;99752.40;1678571;84;21616;-68
2021/03/13 04:09:23;;;;;;;30.32;14.40;;;;;;;-1.12;91.72;99745.14;1683982;84;22142;-68
2021/03/13 04:11:52;;;;;;;27.27;15.00;;;;;;;-1.08;91.91;99753.19;1682449;84;21623;-68
2021/03/13 04:14:20;;;;;;;35.48;16.40;;;;;;;-1.06;91.80;99756.13;1702751;82;20970;-68
2021/03/13 04:16:49;;;;;;;33.85;16.40;;;;;;;-1.03;91.80;99747.15;1726545;81;21511;-67
2021/03/13 04:19:18;;;;;;;33.00;16.57;;;;;;;-0.98;91.75;99744.53;1749461;81;21009;-68
2021/03/13 04:21:46;;;;;;;37.05;16.73;;;;;;;-0.98;91.67;99739.42;1727084;81;21381;-67
2021/03/13 04:24:14;;;;;;;32.75;15.75;;;;;;;-0.98;91.64;99730.48;1729718;81;21614;-68
2021/03/13 04:26:43;;;;;;;29.90;15.83;;;;;;;-0.95;91.82;99729.16;1744218;81;21707;-68
2021/03/13 04:29:12;;;;;;;34.00;16.52;;;;;;;-0.94;91.89;99728.30;1732371;81;21404;-69
2021/03/13 04:31:40;;;;;;;27.40;14.68;;;;;;;-0.90;91.87;99732.93;1716385;81;21133;-68
2021/03/13 04:34:10;;;;;;;30.62;15.93;;;;;;;-0.88;91.84;99730.77;1732817;81;21972;-68
2021/03/13 04:36:38;;;;;;;32.48;16.82;;;;;;;-0.86;91.85;99739.25;1740805;81;21620;-68
2021/03/13 04:39:07;;;;;;;29.48;16.93;;;;;;;-0.81;91.91;99746.86;1730234;81;21518;-67
2021/03/13 04:41:35;;;;;;;36.15;16.85;;;;;;;-0.78;91.94;99737.84;1714052;82;21521;-68
2021/03/13 04:44:05;;;;;;;35.88;17.15;;;;;;;-0.74;91.94;99743.31;1743654;81;21598;-67
2021/03/13 04:46:35;;;;;;;30.88;15.75;;;;;;;-0.73;91.83;99745.85;1690520;82;21284;-67
2021/03/13 04:49:07;;;;;;;36.03;17.42;;;;;;;-0.73;92.07;99744.57;1702650;82;21085;-68
2021/03/13 04:51:35;;;;;;;34.05;15.93;;;;;;;-0.68;92.26;99736.84;1746462;81;21010;-67
2021/03/13 04:54:05;;;;;;;43.02;19.55;;;;;;;-0.64;92.33;99732.09;1729939;81;21563;-68
2021/03/13 04:56:34;;;;;;;43.02;19.23;;;;;;;-0.59;92.33;99741.81;1747871;81;21159;-68
2021/03/13 04:59:02;;;;;;;40.95;18.57;;;;;;;-0.55;92.38;99747.73;1745465;81;22115;-63
2021/03/13 05:01:30;;;;;;;32.70;17.05;;;;;;;-0.52;92.48;99745.97;1730450;81;20986;-63
2021/03/13 05:03:59;;;;;;;40.23;18.90;;;;;;;-0.48;92.57;99758.27;1739021;81;21491;-62
2021/03/13 05:06:27;;;;;;;44.48;20.92;;;;;;;-0.43;92.58;99768.00;1737548;81;21605;-62
2021/03/13 05:08:55;;;;;;;45.73;19.37;;;;;;;-0.40;92.55;99781.56;1725720;81;21531;-62
2021/03/13 05:11:24;;;;;;;45.55;20.85;;;;;;;-0.35;92.57;99781.05;1713583;82;21530;-63
2021/03/13 05:13:52;;;;;;;49.05;21.62;;;;;;;-0.30;92.55;99782.27;1705908;84;21673;-67
2021/03/13 05:16:20;;;;;;;44.63;21.12;;;;;;;-0.24;92.45;99783.45;1714597;82;21670;-69
2021/03/13 05:18:49;;;;;;;49.05;24.43;;;;;;;-0.18;92.40;99788.91;1680547;84;20979;-69
2021/03/13 05:21:17;;;;;;;55.98;25.85;;;;;;;-0.14;92.28;99779.03;1681394;84;21530;-69
2021/03/13 05:23:45;;;;;;;52.30;24.15;;;;;;;-0.10;92.22;99785.35;1659341;84;21381;-68
2021/03/13 05:26:14;;;;;;;43.17;21.77;;;;;;;-0.06;92.09;99781.88;1685651;84;21104;-69
2021/03/13 05:28:42;;;;;;;47.10;22.58;;;;;;;0.01;92.09;99781.30;1738667;81;20980;-68
2021/03/13 05:31:10;;;;;;;48.28;21.93;;;;;;;0.08;92.03;99780.77;1728507;81;21018;-69
2021/03/13 05:33:40;;;;;;;44.20;20.95;;;;;;;0.10;91.88;99777.74;1721865;81;21013;-69
2021/03/13 05:36:11;;;;;;;47.73;21.57;;;;;;;0.12;91.88;99774.28;1722100;81;21487;-69
2021/03/13 05:38:39;;;;;;;47.17;20.02;;;;;;;0.16;91.93;99781.05;1732943;81;20934;-69
2021/03/13 05:41:07;;;;;;;47.98;23.15;;;;;;;0.22;92.14;99778.81;1720929;81;21057;-68
2021/03/13 05:43:35;;;;;;;43.70;21.62;;;;;;;0.27;92.11;99780.42;1722310;81;21077;-69
2021/03/13 05:46:05;;;;;;;43.52;21.77;;;;;;;0.32;92.08;99781.62;1728270;81;20964;-68
2021/03/13 05:48:38;;;;;;;51.25;24.72;;;;;;;0.38;92.01;99789.19;1658265;84;21218;-68
2021/03/13 05:51:06;;;;;;;49.18;22.62;;;;;;;0.45;91.94;99792.45;1684896;84;20986;-69
2021/03/13 05:53:34;;;;;;;52.75;24.23;;;;;;;0.51;91.79;99794.91;1722973;81;21046;-69
2021/03/13 05:56:03;;;;;;;56.95;25.23;;;;;;;0.56;91.79;99801.63;1713158;81;21517;-69
2021/03/13 05:58:31;;;;;;;53.65;24.67;;;;;;;0.61;91.70;99805.39;1733408;81;21049;-68
2021/03/13 06:01:00;;;;;;;50.35;26.37;;;;;;;0.66;91.57;99813.83;1731678;81;21649;-70
2021/03/13 06:03:32;;;;;;;55.00;25.68;;;;;;;0.71;91.50;99817.16;1718375;81;21585;-70
2021/03/13 06:06:02;;;;;;;51.77;25.20;;;;;;;0.77;91.41;99823.88;1743833;81;20972;-69
2021/03/13 06:08:30;;;;;;;53.23;26.27;;;;;;;0.85;91.49;99810.45;1747140;81;21192;-69
2021/03/13 06:10:58;;;;;;;50.00;26.10;;;;;;;0.92;91.43;99813.30;1745748;81;21606;-68
2021/03/13 06:13:27;;;;;;;51.37;27.70;;;;;;;1.00;91.34;99821.68;1722325;81;22203;-70
2021/03/13 06:15:55;;;;;;;62.40;29.18;;;;;;;1.09;91.23;99823.22;1742992;81;21005;-70
2021/03/13 06:18:24;;;;;;;69.42;33.45;;;;;;;1.16;91.16;99820.49;1751236;81;21028;-65
2021/03/13 06:20:53;;;;;;;65.03;32.15;;;;;;;1.25;91.07;99817.70;1743849;81;21474;-65
2021/03/13 06:23:21;;;;;;;75.35;34.48;;;;;;;1.35;90.86;99815.79;1702737;82;21461;-64
2021/03/13 06:25:49;;;;;;;81.85;35.25;;;;;;;1.44;90.63;99822.01;1723849;81;21629;-64
2021/03/13 06:28:19;;;;;;;92.65;38.63;;;;;;;1.52;90.46;99823.12;1732407;81;21090;-71
2021/03/13 06:30:50;;;;;;;57.13;29.63;;;;;;;1.59;90.24;99819.54;1708535;81;20942;-70
2021/03/13 06:33:30;;;;;;;60.78;29.67;;;;;;;1.65;90.04;99821.94;1726681;81;21081;-69
2021/03/13 06:36:03;;;;;;;69.00;31.93;;;;;;;1.73;89.86;99828.18;1710054;81;21021;-70
2021/03/13 06:38:37;;;;;;;58.60;30.20;;;;;;;1.80;89.77;99838.27;1710834;81;21675;-67
2021/03/13 06:41:15;;;;;;;65.17;32.95;;;;;;;1.86;89.50;99842.42;1718515;81;20919;-69
2021/03/13 06:43:46;;;;;;;77.72;37.38;;;;;;;1.89;89.25;99836.78;1719920;82;21100;-63
2021/03/13 06:46:17;;;;;;;78.75;40.75;;;;;;;1.93;89.09;99840.95;1676949;84;21061;-64
2021/03/13 06:48:50;;;;;;;76.67;38.15;;;;;;;1.95;88.90;99845.62;1678164;84;21211;-63
2021/03/13 06:51:28;;;;;;;83.67;41.85;;;;;;;1.98;88.73;99849.84;1708653;82;22119;-65
2021/03/13 06:54:13;;;;;;;59.58;29.70;;;;;;;2.00;88.68;99854.03;1705908;84;21029;-63
2021/03/13 06:56:44;;;;;;;62.27;32.67;;;;;;;2.04;88.58;99852.67;1692804;84;21693;-65
2021/03/13 06:59:30;;;;;;;67.08;34.27;;;;;;;2.09;88.61;99858.55;1736699;81;20988;-65
2021/03/13 07:02:02;;;;;;;61.70;31.62;;;;;;;2.16;88.57;99862.66;1748892;81;21547;-68
2021/03/13 07:04:42;;;;;;;60.92;31.20;;;;;;;2.21;88.27;99868.08;1730601;81;21214;-68
2021/03/13 07:07:18;;;;;;;55.75;29.95;;;;;;;2.25;88.35;99866.28;1728337;81;21515;-68
2021/03/13 07:09:59;;;;;;;51.50;27.75;;;;;;;2.31;88.13;99869.98;1716209;81;21621;-68
2021/03/13 07:12:40;;;;;;;51.60;28.12;;;;;;;2.34;87.97;99874.61;1723825;81;20950;-68
2021/03/13 07:15:24;;;;;;;53.75;28.45;;;;;;;2.36;87.94;99872.00;1740813;81;21043;-64
2021/03/13 07:17:58;;;;;;;55.00;29.57;;;;;;;2.39;87.88;99880.92;1739443;81;22107;-64
2021/03/13 07:20:30;;;;;;;51.10;27.48;;;;;;;2.43;87.85;99879.09;1725704;81;21037;-64
2021/03/13 07:23:00;;;;;;;50.12;26.68;;;;;;;2.45;87.68;99891.45;1728865;81;21507;-64
2021/03/13 07:25:30;;;;;;;52.58;27.20;;;;;;;2.46;87.57;99892.70;1722734;82;21017;-64
2021/03/13 07:28:00;;;;;;;49.18;26.68;;;;;;;2.49;87.68;99895.64;1698575;84;21605;-64
2021/03/13 07:30:31;;;;;;;50.80;28.02;;;;;;;2.51;87.63;99893.87;1721474;82;21456;-67
2021/03/13 07:33:04;;;;;;;52.08;26.73;;;;;;;2.55;87.66;99892.48;1754716;81;20945;-68
2021/03/13 07:35:37;;;;;;;47.40;26.73;;;;;;;2.60;87.53;99894.94;1719860;82;21065;-68
2021/03/13 07:38:08;;;;;;;51.18;26.48;;;;;;;2.63;87.43;99889.72;1742769;81;20993;-64
2021/03/13 07:40:43;;;;;;;41.18;23.70;;;;;;;2.70;87.57;99887.83;1744745;81;21580;-68
2021/03/13 07:43:15;;;;;;;43.78;25.08;;;;;;;2.77;87.53;99888.08;1734510;81;21196;-69
2021/03/13 07:45:49;;;;;;;52.08;25.88;;;;;;;2.83;87.40;99895.59;1737566;81;20945;-64
2021/03/13 07:48:19;;;;;;;41.73;24.25;;;;;;;2.88;87.28;99896.32;1695791;82;21049;-64
2021/03/13 07:50:51;;;;;;;47.65;26.20;;;;;;;2.93;87.08;99902.19;1737086;81;21470;-69
2021/03/13 07:53:19;;;;;;;37.05;21.75;;;;;;;2.95;86.88;99897.41;1688740;83;21077;-64
2021/03/13 07:55:52;;;;;;;39.58;22.25;;;;;;;2.98;86.85;99893.47;1732646;81;21208;-70
2021/03/13 07:58:21;;;;;;;35.73;21.10;;;;;;;3.01;86.61;99895.11;1716939;81;20964;-67
2021/03/13 08:00:52;;;;;;;38.63;22.77;;;;;;;3.04;86.54;99898.89;1734739;81;20897;-69
2021/03/13 08:03:33;;;;;;;41.40;24.07;;;;;;;3.09;86.49;99891.89;1723774;81;21689;-69
2021/03/13 08:06:10;;;;;;;86.40;49.67;;;;;;;3.14;86.35;99902.05;1730719;81;21506;-67
2021/03/13 08:08:46;;;;;;;42.85;24.43;;;;;;;3.20;86.37;99902.70;1741594;81;21205;-66
2021/03/13 08:11:17;;;;;;;39.25;22.87;;;;;;;3.26;86.24;99894.81;1708306;81;21602;-69
